sensor_id;sensor_type;location;lat;lon;timestamp;pressure;altitude;pressure_sealevel;temperature;humidity
76732;BME280;65656;51.130;13.658;2022-12-18T00:02:00;100920.47;;;-10.55;94.93
76732;BME280;65656;51.130;13.658;2022-12-18T00:06:02;100918.44;;;-10.50;94.24
76732;BME280;65656;51.130;13.658;2022-12-18T00:10:06;100911.75;;;-10.57;93.97
76732;BME280;65656;51.130;13.658;2022-12-18T00:14:09;100927.00;;;-10.45;94.34
76732;BME280;65656;51.130;13.658;2022-12-18T00:18:12;100942.81;;;-10.11;94.68
76732;BME280;65656;51.130;13.658;2022-12-18T00:22:19;100940.09;;;-9.93;94.20
76732;BME280;65656;51.130;13.658;2022-12-18T00:26:23;100932.03;;;-10.07;92.18
76732;BME280;65656;51.130;13.658;2022-12-18T00:30:26;100940.00;;;-10.41;89.99
76732;BME280;65656;51.130;13.658;2022-12-18T00:34:27;100945.38;;;-10.59;90.25
76732;BME280;65656;51.130;13.658;2022-12-18T00:38:29;100947.25;;;-10.61;92.34
76732;BME280;65656;51.130;13.658;2022-12-18T00:42:32;100959.09;;;-10.51;93.39
76732;BME280;65656;51.130;13.658;2022-12-18T00:46:33;100954.72;;;-10.35;94.27
76732;BME280;65656;51.130;13.658;2022-12-18T00:50:35;100957.44;;;-10.36;94.03
76732;BME280;65656;51.130;13.658;2022-12-18T00:54:36;100955.06;;;-10.41;92.85
76732;BME280;65656;51.130;13.658;2022-12-18T00:58:39;100962.19;;;-10.43;92.29
76732;BME280;65656;51.130;13.658;2022-12-18T01:02:41;100959.44;;;-10.57;92.16
76732;BME280;65656;51.130;13.658;2022-12-18T01:06:43;100961.34;;;-10.44;93.43
76732;BME280;65656;51.130;13.658;2022-12-18T01:10:45;100961.56;;;-10.31;93.83
76732;BME280;65656;51.130;13.658;2022-12-18T01:14:48;100963.16;;;-10.27;94.37
76732;BME280;65656;51.130;13.658;2022-12-18T01:18:51;100963.53;;;-10.01;94.92
76732;BME280;65656;51.130;13.658;2022-12-18T01:22:53;100967.94;;;-9.69;94.88
76732;BME280;65656;51.130;13.658;2022-12-18T01:26:54;100971.47;;;-9.37;95.11
76732;BME280;65656;51.130;13.658;2022-12-18T01:30:57;100983.28;;;-9.27;92.95
76732;BME280;65656;51.130;13.658;2022-12-18T01:34:59;100984.84;;;-9.22;93.71
76732;BME280;65656;51.130;13.658;2022-12-18T01:39:02;100984.50;;;-9.32;91.86
76732;BME280;65656;51.130;13.658;2022-12-18T01:43:04;100979.84;;;-9.60;90.42
76732;BME280;65656;51.130;13.658;2022-12-18T01:47:19;100983.63;;;-9.97;88.72
76732;BME280;65656;51.130;13.658;2022-12-18T01:51:21;100978.34;;;-10.15;89.37
76732;BME280;65656;51.130;13.658;2022-12-18T01:55:24;100979.94;;;-10.28;89.87
76732;BME280;65656;51.130;13.658;2022-12-18T01:59:27;100994.00;;;-10.43;90.54
76732;BME280;65656;51.130;13.658;2022-12-18T02:03:31;100989.34;;;-10.55;90.26
76732;BME280;65656;51.130;13.658;2022-12-18T02:07:39;100984.63;;;-10.68;90.42
76732;BME280;65656;51.130;13.658;2022-12-18T02:11:49;100985.09;;;-10.77;91.05
76732;BME280;65656;51.130;13.658;2022-12-18T02:15:59;100993.81;;;-10.75;91.32
76732;BME280;65656;51.130;13.658;2022-12-18T02:20:12;100981.69;;;-10.61;91.88
76732;BME280;65656;51.130;13.658;2022-12-18T02:24:22;100983.66;;;-10.65;91.72
76732;BME280;65656;51.130;13.658;2022-12-18T02:28:31;100980.97;;;-10.82;90.99
76732;BME280;65656;51.130;13.658;2022-12-18T02:32:38;100989.91;;;-10.85;90.79
76732;BME280;65656;51.130;13.658;2022-12-18T02:36:42;100988.84;;;-10.81;92.31
76732;BME280;65656;51.130;13.658;2022-12-18T02:40:45;100992.97;;;-10.75;92.21
76732;BME280;65656;51.130;13.658;2022-12-18T02:44:50;100997.56;;;-10.79;92.16
76732;BME280;65656;51.130;13.658;2022-12-18T02:48:54;100996.00;;;-10.83;91.45
76732;BME280;65656;51.130;13.658;2022-12-18T02:53:06;100993.03;;;-10.94;91.53
76732;BME280;65656;51.130;13.658;2022-12-18T02:57:16;101003.75;;;-10.97;92.12
76732;BME280;65656;51.130;13.658;2022-12-18T03:01:30;101006.44;;;-10.80;92.25
76732;BME280;65656;51.130;13.658;2022-12-18T03:05:36;100995.91;;;-9.79;96.33
76732;BME280;65656;51.130;13.658;2022-12-18T03:09:43;101001.97;;;-9.28;96.02
76732;BME280;65656;51.130;13.658;2022-12-18T03:13:50;100997.66;;;-8.83;95.52
76732;BME280;65656;51.130;13.658;2022-12-18T03:17:58;100995.59;;;-8.78;96.01
76732;BME280;65656;51.130;13.658;2022-12-18T03:22:02;101004.25;;;-8.90;96.86
76732;BME280;65656;51.130;13.658;2022-12-18T03:26:07;101004.19;;;-9.05;95.79
76732;BME280;65656;51.130;13.658;2022-12-18T03:30:14;101007.78;;;-9.06;96.69
76732;BME280;65656;51.130;13.658;2022-12-18T03:34:22;101008.06;;;-8.94;96.53
76732;BME280;65656;51.130;13.658;2022-12-18T03:38:24;101015.16;;;-8.79;95.33
76732;BME280;65656;51.130;13.658;2022-12-18T03:42:29;101006.81;;;-8.73;96.03
76732;BME280;65656;51.130;13.658;2022-12-18T03:46:39;101008.59;;;-8.74;95.58
76732;BME280;65656;51.130;13.658;2022-12-18T03:50:46;101014.44;;;-8.67;95.56
76732;BME280;65656;51.130;13.658;2022-12-18T03:54:50;101021.72;;;-8.71;95.24
76732;BME280;65656;51.130;13.658;2022-12-18T03:58:54;101015.09;;;-8.48;94.81
76732;BME280;65656;51.130;13.658;2022-12-18T04:02:57;101016.25;;;-8.37;94.72
76732;BME280;65656;51.130;13.658;2022-12-18T04:07:03;101027.69;;;-8.51;94.78
76732;BME280;65656;51.130;13.658;2022-12-18T04:11:06;101034.59;;;-8.49;94.57
76732;BME280;65656;51.130;13.658;2022-12-18T04:15:08;101030.72;;;-8.73;94.06
76732;BME280;65656;51.130;13.658;2022-12-18T04:19:10;101032.94;;;-8.81;96.49
76732;BME280;65656;51.130;13.658;2022-12-18T04:23:13;101036.41;;;-8.79;94.99
76732;BME280;65656;51.130;13.658;2022-12-18T04:27:14;101034.50;;;-8.77;96.51
76732;BME280;65656;51.130;13.658;2022-12-18T04:31:16;101029.94;;;-8.75;95.96
76732;BME280;65656;51.130;13.658;2022-12-18T04:35:18;101044.38;;;-8.79;94.37
76732;BME280;65656;51.130;13.658;2022-12-18T04:39:21;101046.66;;;-9.05;92.73
76732;BME280;65656;51.130;13.658;2022-12-18T04:43:23;101054.91;;;-9.25;93.24
76732;BME280;65656;51.130;13.658;2022-12-18T04:47:24;101041.19;;;-9.33;92.91
76732;BME280;65656;51.130;13.658;2022-12-18T04:51:26;101048.84;;;-9.44;92.37
76732;BME280;65656;51.130;13.658;2022-12-18T04:55:29;101044.94;;;-9.37;93.16
76732;BME280;65656;51.130;13.658;2022-12-18T04:59:30;101051.94;;;-9.36;92.95
76732;BME280;65656;51.130;13.658;2022-12-18T05:03:32;101051.94;;;-9.52;91.87
76732;BME280;65656;51.130;13.658;2022-12-18T05:07:33;101049.16;;;-9.66;91.45
76732;BME280;65656;51.130;13.658;2022-12-18T05:11:36;101042.53;;;-9.75;92.02
76732;BME280;65656;51.130;13.658;2022-12-18T05:15:38;101045.69;;;-9.84;91.03
76732;BME280;65656;51.130;13.658;2022-12-18T05:19:39;101046.63;;;-10.20;89.76
76732;BME280;65656;51.130;13.658;2022-12-18T05:23:41;101051.66;;;-10.31;90.59
76732;BME280;65656;51.130;13.658;2022-12-18T05:27:45;101053.00;;;-10.40;90.87
76732;BME280;65656;51.130;13.658;2022-12-18T05:31:47;101052.44;;;-10.46;91.88
76732;BME280;65656;51.130;13.658;2022-12-18T05:35:50;101058.53;;;-10.27;93.47
76732;BME280;65656;51.130;13.658;2022-12-18T05:39:52;101046.84;;;-10.23;91.73
76732;BME280;65656;51.130;13.658;2022-12-18T05:43:55;101055.84;;;-10.44;91.11
76732;BME280;65656;51.130;13.658;2022-12-18T05:47:56;101054.72;;;-10.38;92.58
76732;BME280;65656;51.130;13.658;2022-12-18T05:51:58;101055.25;;;-10.32;91.96
76732;BME280;65656;51.130;13.658;2022-12-18T05:56:00;101054.00;;;-10.42;91.94
76732;BME280;65656;51.130;13.658;2022-12-18T06:00:04;101059.31;;;-10.42;92.28
76732;BME280;65656;51.130;13.658;2022-12-18T06:04:06;101061.41;;;-10.31;92.17
76732;BME280;65656;51.130;13.658;2022-12-18T06:08:08;101062.78;;;-10.59;89.84
76732;BME280;65656;51.130;13.658;2022-12-18T06:12:10;101082.00;;;-10.73;90.69
76732;BME280;65656;51.130;13.658;2022-12-18T06:16:13;101078.44;;;-10.72;91.85
76732;BME280;65656;51.130;13.658;2022-12-18T06:20:14;101079.44;;;-10.93;90.05
76732;BME280;65656;51.130;13.658;2022-12-18T06:24:17;101074.44;;;-10.99;91.84
76732;BME280;65656;51.130;13.658;2022-12-18T06:28:18;101086.16;;;-10.86;91.41
76732;BME280;65656;51.130;13.658;2022-12-18T06:32:22;101082.00;;;-10.91;91.24
76732;BME280;65656;51.130;13.658;2022-12-18T06:36:24;101085.75;;;-10.96;91.80
76732;BME280;65656;51.130;13.658;2022-12-18T06:40:25;101084.16;;;-11.00;91.38
76732;BME280;65656;51.130;13.658;2022-12-18T06:44:26;101099.63;;;-11.09;92.10
76732;BME280;65656;51.130;13.658;2022-12-18T06:48:30;101106.28;;;-11.19;91.75
76732;BME280;65656;51.130;13.658;2022-12-18T06:52:32;101098.47;;;-11.23;92.09
76732;BME280;65656;51.130;13.658;2022-12-18T06:56:34;101107.66;;;-11.11;93.23
76732;BME280;65656;51.130;13.658;2022-12-18T07:00:35;101110.19;;;-10.72;93.84
76732;BME280;65656;51.130;13.658;2022-12-18T07:04:38;101117.06;;;-10.68;93.04
76732;BME280;65656;51.130;13.658;2022-12-18T07:08:40;101112.88;;;-10.54;93.44
76732;BME280;65656;51.130;13.658;2022-12-18T07:12:41;101122.75;;;-10.39;92.94
76732;BME280;65656;51.130;13.658;2022-12-18T07:16:43;101115.16;;;-10.47;91.13
76732;BME280;65656;51.130;13.658;2022-12-18T07:20:46;101114.88;;;-10.59;91.41
76732;BME280;65656;51.130;13.658;2022-12-18T07:24:49;101127.16;;;-10.76;91.42
76732;BME280;65656;51.130;13.658;2022-12-18T07:28:55;101133.81;;;-10.86;90.75
76732;BME280;65656;51.130;13.658;2022-12-18T07:32:56;101128.56;;;-10.69;92.67
76732;BME280;65656;51.130;13.658;2022-12-18T07:36:59;101136.66;;;-10.53;92.52
76732;BME280;65656;51.130;13.658;2022-12-18T07:41:01;101141.09;;;-10.53;92.20
76732;BME280;65656;51.130;13.658;2022-12-18T07:45:06;101149.53;;;-10.45;92.44
76732;BME280;65656;51.130;13.658;2022-12-18T07:49:08;101144.63;;;-10.35;92.61
76732;BME280;65656;51.130;13.658;2022-12-18T07:53:11;101151.13;;;-10.06;93.28
76732;BME280;65656;51.130;13.658;2022-12-18T07:57:12;101147.53;;;-10.05;91.34
76732;BME280;65656;51.130;13.658;2022-12-18T08:01:34;101145.03;;;-9.91;90.93
76732;BME280;65656;51.130;13.658;2022-12-18T08:05:36;101147.41;;;-10.02;89.68
76732;BME280;65656;51.130;13.658;2022-12-18T08:09:39;101135.22;;;-10.06;90.37
76732;BME280;65656;51.130;13.658;2022-12-18T08:13:40;101125.53;;;-10.07;90.17
76732;BME280;65656;51.130;13.658;2022-12-18T08:17:43;101130.50;;;-9.49;93.44
76732;BME280;65656;51.130;13.658;2022-12-18T08:21:44;101131.66;;;-9.38;89.71
76732;BME280;65656;51.130;13.658;2022-12-18T08:25:47;101136.50;;;-9.13;91.31
76732;BME280;65656;51.130;13.658;2022-12-18T08:29:49;101141.28;;;-8.86;91.97
76732;BME280;65656;51.130;13.658;2022-12-18T08:33:52;101137.50;;;-8.82;90.16
76732;BME280;65656;51.130;13.658;2022-12-18T08:37:54;101135.59;;;-8.80;88.96
76732;BME280;65656;51.130;13.658;2022-12-18T08:41:57;101136.63;;;-8.51;89.87
76732;BME280;65656;51.130;13.658;2022-12-18T08:45:59;101140.75;;;-8.46;89.73
76732;BME280;65656;51.130;13.658;2022-12-18T08:50:01;101136.03;;;-8.40;88.14
76732;BME280;65656;51.130;13.658;2022-12-18T08:54:04;101142.22;;;-8.10;89.29
76732;BME280;65656;51.130;13.658;2022-12-18T08:58:08;101148.19;;;-7.91;88.50
76732;BME280;65656;51.130;13.658;2022-12-18T09:02:10;101152.78;;;-7.78;88.93
76732;BME280;65656;51.130;13.658;2022-12-18T09:06:13;101134.03;;;-7.61;89.16
76732;BME280;65656;51.130;13.658;2022-12-18T09:10:15;101146.00;;;-7.54;88.64
76732;BME280;65656;51.130;13.658;2022-12-18T09:14:19;101157.81;;;-7.44;86.91
76732;BME280;65656;51.130;13.658;2022-12-18T09:18:22;101166.19;;;-7.36;88.52
76732;BME280;65656;51.130;13.658;2022-12-18T09:22:24;101172.50;;;-7.22;86.70
76732;BME280;65656;51.130;13.658;2022-12-18T09:26:26;101183.13;;;-7.08;87.24
76732;BME280;65656;51.130;13.658;2022-12-18T09:30:29;101173.91;;;-7.03;86.18
76732;BME280;65656;51.130;13.658;2022-12-18T09:34:30;101178.41;;;-6.89;85.93
76732;BME280;65656;51.130;13.658;2022-12-18T09:38:32;101178.38;;;-7.03;84.62
76732;BME280;65656;51.130;13.658;2022-12-18T09:42:34;101178.19;;;-6.86;85.72
76732;BME280;65656;51.130;13.658;2022-12-18T09:46:42;101165.06;;;-6.89;85.85
76732;BME280;65656;51.130;13.658;2022-12-18T09:50:46;101160.69;;;-6.76;86.61
76732;BME280;65656;51.130;13.658;2022-12-18T09:54:51;101158.91;;;-6.48;87.36
76732;BME280;65656;51.130;13.658;2022-12-18T09:58:57;101152.97;;;-6.39;86.74
76732;BME280;65656;51.130;13.658;2022-12-18T10:03:03;101145.19;;;-6.15;87.15
76732;BME280;65656;51.130;13.658;2022-12-18T10:07:15;101143.13;;;-5.97;86.33
76732;BME280;65656;51.130;13.658;2022-12-18T10:11:27;101120.72;;;-5.82;86.08
76732;BME280;65656;51.130;13.658;2022-12-18T10:15:36;101111.53;;;-5.78;84.52
76732;BME280;65656;51.130;13.658;2022-12-18T10:19:46;101106.34;;;-5.67;85.35
76732;BME280;65656;51.130;13.658;2022-12-18T10:23:56;101097.78;;;-5.46;84.28
76732;BME280;65656;51.130;13.658;2022-12-18T10:28:07;101085.94;;;-5.42;84.08
76732;BME280;65656;51.130;13.658;2022-12-18T10:32:14;101091.19;;;-5.28;83.60
76732;BME280;65656;51.130;13.658;2022-12-18T10:36:18;101076.09;;;-5.16;83.04
76732;BME280;65656;51.130;13.658;2022-12-18T10:40:20;101076.22;;;-5.43;82.02
76732;BME280;65656;51.130;13.658;2022-12-18T10:44:27;101071.59;;;-5.16;82.61
76732;BME280;65656;51.130;13.658;2022-12-18T10:48:30;101072.81;;;-4.83;81.96
76732;BME280;65656;51.130;13.658;2022-12-18T10:52:33;101072.38;;;-4.77;80.81
76732;BME280;65656;51.130;13.658;2022-12-18T10:56:37;101081.75;;;-4.59;79.07
76732;BME280;65656;51.130;13.658;2022-12-18T11:00:39;101071.09;;;-4.71;79.99
76732;BME280;65656;51.130;13.658;2022-12-18T11:04:51;101061.78;;;-4.42;80.08
76732;BME280;65656;51.130;13.658;2022-12-18T11:08:59;101063.91;;;-4.23;78.43
76732;BME280;65656;51.130;13.658;2022-12-18T11:13:11;101054.97;;;-4.11;77.16
76732;BME280;65656;51.130;13.658;2022-12-18T11:17:18;101043.19;;;-4.08;78.03
76732;BME280;65656;51.130;13.658;2022-12-18T11:21:28;101038.38;;;-4.27;76.37
76732;BME280;65656;51.130;13.658;2022-12-18T11:25:32;101042.72;;;-4.02;76.44
76732;BME280;65656;51.130;13.658;2022-12-18T11:29:38;101049.13;;;-4.05;76.39
76732;BME280;65656;51.130;13.658;2022-12-18T11:33:52;101042.84;;;-3.93;76.48
76732;BME280;65656;51.130;13.658;2022-12-18T11:38:20;101044.66;;;-4.04;77.56
76732;BME280;65656;51.130;13.658;2022-12-18T11:42:28;101032.78;;;-3.89;76.77
76732;BME280;65656;51.130;13.658;2022-12-18T11:46:37;101041.94;;;-3.80;76.73
76732;BME280;65656;51.130;13.658;2022-12-18T11:50:49;101047.03;;;-3.77;74.87
76732;BME280;65656;51.130;13.658;2022-12-18T11:54:52;101048.53;;;-3.73;75.27
76732;BME280;65656;51.130;13.658;2022-12-18T11:59:02;101051.94;;;-3.71;76.12
76732;BME280;65656;51.130;13.658;2022-12-18T12:03:39;101053.72;;;-3.83;76.05
76732;BME280;65656;51.130;13.658;2022-12-18T12:07:50;101064.03;;;-3.89;76.40
76732;BME280;65656;51.130;13.658;2022-12-18T12:12:07;101062.84;;;-3.85;75.67
76732;BME280;65656;51.130;13.658;2022-12-18T12:16:17;101062.56;;;-3.94;75.41
76732;BME280;65656;51.130;13.658;2022-12-18T12:20:22;101075.69;;;-4.02;76.10
76732;BME280;65656;51.130;13.658;2022-12-18T12:24:34;101071.19;;;-4.01;75.59
76732;BME280;65656;51.130;13.658;2022-12-18T12:28:49;101074.97;;;-4.04;75.41
76732;BME280;65656;51.130;13.658;2022-12-18T12:33:11;101084.91;;;-4.06;76.74
76732;BME280;65656;51.130;13.658;2022-12-18T12:37:23;101093.47;;;-4.01;75.65
76732;BME280;65656;51.130;13.658;2022-12-18T12:41:31;101103.94;;;-3.98;76.11
76732;BME280;65656;51.130;13.658;2022-12-18T12:45:37;101099.91;;;-4.03;75.87
76732;BME280;65656;51.130;13.658;2022-12-18T12:49:42;101071.78;;;-4.09;74.95
76732;BME280;65656;51.130;13.658;2022-12-18T12:53:44;101065.91;;;-4.14;75.84
76732;BME280;65656;51.130;13.658;2022-12-18T12:57:52;101076.84;;;-4.17;76.20
76732;BME280;65656;51.130;13.658;2022-12-18T13:02:01;101074.78;;;-4.37;75.98
76732;BME280;65656;51.130;13.658;2022-12-18T13:06:11;101064.56;;;-4.43;76.40
76732;BME280;65656;51.130;13.658;2022-12-18T13:10:34;101066.00;;;-4.51;76.22
76732;BME280;65656;51.130;13.658;2022-12-18T13:14:38;101053.34;;;-4.49;76.85
76732;BME280;65656;51.130;13.658;2022-12-18T13:18:48;101053.25;;;-4.60;76.48
76732;BME280;65656;51.130;13.658;2022-12-18T13:22:52;101061.25;;;-4.71;76.21
76732;BME280;65656;51.130;13.658;2022-12-18T13:26:53;101061.00;;;-4.68;76.04
76732;BME280;65656;51.130;13.658;2022-12-18T13:30:55;101072.56;;;-4.67;76.14
76732;BME280;65656;51.130;13.658;2022-12-18T13:35:38;101066.25;;;-4.66;74.98
76732;BME280;65656;51.130;13.658;2022-12-18T13:39:41;101074.47;;;-4.57;75.34
76732;BME280;65656;51.130;13.658;2022-12-18T13:43:46;101066.81;;;-4.74;74.77
76732;BME280;65656;51.130;13.658;2022-12-18T13:47:48;101059.25;;;-4.56;75.09
76732;BME280;65656;51.130;13.658;2022-12-18T13:51:52;101053.06;;;-4.57;75.21
76732;BME280;65656;51.130;13.658;2022-12-18T13:55:55;101051.38;;;-4.70;75.69
76732;BME280;65656;51.130;13.658;2022-12-18T13:59:58;101054.34;;;-4.86;75.52
76732;BME280;65656;51.130;13.658;2022-12-18T14:04:11;101048.25;;;-4.88;76.46
76732;BME280;65656;51.130;13.658;2022-12-18T14:08:14;101062.59;;;-4.89;77.09
76732;BME280;65656;51.130;13.658;2022-12-18T14:12:20;101064.00;;;-4.96;76.03
76732;BME280;65656;51.130;13.658;2022-12-18T14:16:23;101058.34;;;-5.05;78.14
76732;BME280;65656;51.130;13.658;2022-12-18T14:20:25;101050.03;;;-5.13;77.57
76732;BME280;65656;51.130;13.658;2022-12-18T14:24:27;101040.19;;;-5.12;78.33
76732;BME280;65656;51.130;13.658;2022-12-18T14:28:30;101043.41;;;-5.20;78.46
76732;BME280;65656;51.130;13.658;2022-12-18T14:32:31;101036.25;;;-5.32;78.85
76732;BME280;65656;51.130;13.658;2022-12-18T14:36:34;101026.53;;;-5.33;79.72
76732;BME280;65656;51.130;13.658;2022-12-18T14:40:35;101021.19;;;-5.33;79.32
76732;BME280;65656;51.130;13.658;2022-12-18T14:44:38;101029.44;;;-5.36;80.07
76732;BME280;65656;51.130;13.658;2022-12-18T14:49:03;101023.13;;;-5.61;79.58
76732;BME280;65656;51.130;13.658;2022-12-18T14:53:17;101024.63;;;-5.69;80.44
76732;BME280;65656;51.130;13.658;2022-12-18T14:57:22;101032.53;;;-5.93;79.38
76732;BME280;65656;51.130;13.658;2022-12-18T15:01:28;101033.06;;;-6.13;80.07
76732;BME280;65656;51.130;13.658;2022-12-18T15:05:31;101030.19;;;-6.10;81.15
76732;BME280;65656;51.130;13.658;2022-12-18T15:09:32;101014.78;;;-6.20;80.32
76732;BME280;65656;51.130;13.658;2022-12-18T15:13:34;101021.94;;;-6.20;80.67
76732;BME280;65656;51.130;13.658;2022-12-18T15:17:37;101033.09;;;-6.40;80.17
76732;BME280;65656;51.130;13.658;2022-12-18T15:21:42;101010.94;;;-6.28;82.54
76732;BME280;65656;51.130;13.658;2022-12-18T15:25:45;101012.84;;;-6.30;80.53
76732;BME280;65656;51.130;13.658;2022-12-18T15:30:11;101008.91;;;-6.37;82.33
76732;BME280;65656;51.130;13.658;2022-12-18T15:34:21;101002.31;;;-6.59;81.07
76732;BME280;65656;51.130;13.658;2022-12-18T15:38:23;100994.13;;;-6.56;82.37
76732;BME280;65656;51.130;13.658;2022-12-18T15:42:25;100997.63;;;-6.55;81.80
76732;BME280;65656;51.130;13.658;2022-12-18T15:46:26;100981.78;;;-6.44;82.60
76732;BME280;65656;51.130;13.658;2022-12-18T15:50:29;100999.81;;;-6.35;81.60
76732;BME280;65656;51.130;13.658;2022-12-18T15:54:31;100988.31;;;-6.35;81.94
76732;BME280;65656;51.130;13.658;2022-12-18T15:58:33;100982.13;;;-6.36;81.73
76732;BME280;65656;51.130;13.658;2022-12-18T16:02:34;100979.44;;;-6.36;81.34
76732;BME280;65656;51.130;13.658;2022-12-18T16:06:38;100968.03;;;-6.38;81.84
76732;BME280;65656;51.130;13.658;2022-12-18T16:10:59;100965.91;;;-6.33;81.26
76732;BME280;65656;51.130;13.658;2022-12-18T16:15:01;100969.31;;;-6.31;81.56
76732;BME280;65656;51.130;13.658;2022-12-18T16:19:02;100969.31;;;-6.31;81.11
76732;BME280;65656;51.130;13.658;2022-12-18T16:23:06;100971.03;;;-6.30;81.41
76732;BME280;65656;51.130;13.658;2022-12-18T16:27:07;100978.50;;;-6.35;81.99
76732;BME280;65656;51.130;13.658;2022-12-18T16:31:09;100979.13;;;-6.44;81.43
76732;BME280;65656;51.130;13.658;2022-12-18T16:35:11;100979.13;;;-6.44;82.06
76732;BME280;65656;51.130;13.658;2022-12-18T16:39:14;100978.28;;;-6.44;82.91
76732;BME280;65656;51.130;13.658;2022-12-18T16:43:16;100974.97;;;-6.35;81.80
76732;BME280;65656;51.130;13.658;2022-12-18T16:47:18;100961.75;;;-6.37;81.95
76732;BME280;65656;51.130;13.658;2022-12-18T16:51:20;100960.13;;;-6.39;82.11
76732;BME280;65656;51.130;13.658;2022-12-18T16:55:22;100969.41;;;-6.45;82.90
76732;BME280;65656;51.130;13.658;2022-12-18T16:59:24;100966.81;;;-6.47;82.48
76732;BME280;65656;51.130;13.658;2022-12-18T17:03:26;100961.19;;;-6.42;82.21
76732;BME280;65656;51.130;13.658;2022-12-18T17:07:27;100962.91;;;-6.41;82.19
76732;BME280;65656;51.130;13.658;2022-12-18T17:11:32;100949.00;;;-6.46;82.49
76732;BME280;65656;51.130;13.658;2022-12-18T17:15:34;100963.13;;;-6.44;83.23
76732;BME280;65656;51.130;13.658;2022-12-18T17:19:35;100951.59;;;-6.32;82.70
76732;BME280;65656;51.130;13.658;2022-12-18T17:23:37;100949.56;;;-6.41;82.92
76732;BME280;65656;51.130;13.658;2022-12-18T17:27:40;100956.59;;;-6.40;82.29
76732;BME280;65656;51.130;13.658;2022-12-18T17:31:42;100946.72;;;-6.38;82.85
76732;BME280;65656;51.130;13.658;2022-12-18T17:35:43;100948.81;;;-6.43;82.61
76732;BME280;65656;51.130;13.658;2022-12-18T17:39:48;100955.63;;;-6.39;82.10
76732;BME280;65656;51.130;13.658;2022-12-18T17:43:52;100952.97;;;-6.39;82.17
76732;BME280;65656;51.130;13.658;2022-12-18T17:47:54;100947.13;;;-6.44;81.77
76732;BME280;65656;51.130;13.658;2022-12-18T17:52:00;100944.78;;;-6.36;82.18
76732;BME280;65656;51.130;13.658;2022-12-18T17:56:02;100935.59;;;-6.32;82.34
76732;BME280;65656;51.130;13.658;2022-12-18T18:00:06;100939.03;;;-6.30;81.92
76732;BME280;65656;51.130;13.658;2022-12-18T18:04:08;100940.75;;;-6.29;81.47
76732;BME280;65656;51.130;13.658;2022-12-18T18:08:10;100935.94;;;-6.24;82.33
76732;BME280;65656;51.130;13.658;2022-12-18T18:12:12;100937.22;;;-6.17;82.42
76732;BME280;65656;51.130;13.658;2022-12-18T18:16:15;100933.38;;;-6.12;82.26
76732;BME280;65656;51.130;13.658;2022-12-18T18:20:16;100932.97;;;-6.06;82.28
76732;BME280;65656;51.130;13.658;2022-12-18T18:24:23;100932.22;;;-5.96;81.24
76732;BME280;65656;51.130;13.658;2022-12-18T18:28:24;100926.56;;;-5.91;81.72
76732;BME280;65656;51.130;13.658;2022-12-18T18:32:27;100919.75;;;-5.84;81.35
76732;BME280;65656;51.130;13.658;2022-12-18T18:36:29;100910.59;;;-5.80;80.44
76732;BME280;65656;51.130;13.658;2022-12-18T18:40:31;100910.38;;;-5.77;80.69
76732;BME280;65656;51.130;13.658;2022-12-18T18:44:32;100914.97;;;-5.79;80.58
76732;BME280;65656;51.130;13.658;2022-12-18T18:48:36;100899.47;;;-5.74;80.17
76732;BME280;65656;51.130;13.658;2022-12-18T18:52:38;100882.81;;;-5.65;80.37
76732;BME280;65656;51.130;13.658;2022-12-18T18:56:41;100896.69;;;-5.59;79.85
76732;BME280;65656;51.130;13.658;2022-12-18T19:01:05;100887.06;;;-5.62;79.19
76732;BME280;65656;51.130;13.658;2022-12-18T19:05:08;100868.25;;;-5.61;79.81
76732;BME280;65656;51.130;13.658;2022-12-18T19:09:10;100859.69;;;-5.53;79.42
76732;BME280;65656;51.130;13.658;2022-12-18T19:13:12;100862.03;;;-5.48;78.72
76732;BME280;65656;51.130;13.658;2022-12-18T19:17:14;100867.53;;;-5.39;78.82
76732;BME280;65656;51.130;13.658;2022-12-18T19:21:17;100850.66;;;-5.39;78.21
76732;BME280;65656;51.130;13.658;2022-12-18T19:25:19;100859.19;;;-5.34;78.24
76732;BME280;65656;51.130;13.658;2022-12-18T19:29:20;100857.94;;;-5.41;78.56
76732;BME280;65656;51.130;13.658;2022-12-18T19:33:22;100840.16;;;-5.29;78.34
76732;BME280;65656;51.130;13.658;2022-12-18T19:37:45;100830.34;;;-5.29;77.98
76732;BME280;65656;51.130;13.658;2022-12-18T19:41:46;100806.78;;;-5.24;77.85
76732;BME280;65656;51.130;13.658;2022-12-18T19:45:53;100809.56;;;-5.25;77.88
76732;BME280;65656;51.130;13.658;2022-12-18T19:49:55;100804.84;;;-5.22;77.13
76732;BME280;65656;51.130;13.658;2022-12-18T19:53:59;100803.31;;;-5.13;76.90
76732;BME280;65656;51.130;13.658;2022-12-18T19:58:02;100795.19;;;-5.12;76.53
76732;BME280;65656;51.130;13.658;2022-12-18T20:02:03;100798.31;;;-5.18;77.17
76732;BME280;65656;51.130;13.658;2022-12-18T20:06:10;100805.88;;;-5.12;76.95
76732;BME280;65656;51.130;13.658;2022-12-18T20:10:13;100803.47;;;-5.03;76.47
76732;BME280;65656;51.130;13.658;2022-12-18T20:14:17;100796.44;;;-5.05;76.51
76732;BME280;65656;51.130;13.658;2022-12-18T20:18:24;100796.19;;;-5.01;76.40
76732;BME280;65656;51.130;13.658;2022-12-18T20:22:25;100794.03;;;-4.96;76.12
76732;BME280;65656;51.130;13.658;2022-12-18T20:26:28;100799.25;;;-4.95;75.79
76732;BME280;65656;51.130;13.658;2022-12-18T20:30:30;100797.41;;;-4.94;75.54
76732;BME280;65656;51.130;13.658;2022-12-18T20:34:32;100789.91;;;-4.89;75.53
76732;BME280;65656;51.130;13.658;2022-12-18T20:38:34;100792.59;;;-4.89;75.27
76732;BME280;65656;51.130;13.658;2022-12-18T20:42:37;100785.81;;;-4.82;75.11
76732;BME280;65656;51.130;13.658;2022-12-18T20:46:39;100770.44;;;-4.91;75.20
76732;BME280;65656;51.130;13.658;2022-12-18T20:50:40;100753.72;;;-4.82;74.98
76732;BME280;65656;51.130;13.658;2022-12-18T20:54:42;100747.66;;;-4.73;74.87
76732;BME280;65656;51.130;13.658;2022-12-18T20:58:45;100750.56;;;-4.65;74.00